createdAt,value
2022-08-07T00:02:39.871Z,0.90
2022-08-07T00:05:09.400Z,1.50
2022-08-07T00:07:41.691Z,1.77
2022-08-07T00:10:26.500Z,0.80
2022-08-07T00:13:02.062Z,2.40
2022-08-07T00:15:37.725Z,1.87
2022-08-07T00:18:24.595Z,1.37
2022-08-07T00:21:01.677Z,1.10
2022-08-07T00:23:35.869Z,1.10
2022-08-07T00:26:13.028Z,1.70
2022-08-07T00:28:56.626Z,1.27
2022-08-07T00:31:38.019Z,1.37
2022-08-07T00:34:13.102Z,1.50
2022-08-07T00:36:46.877Z,2.40
2022-08-07T00:39:20.673Z,3.07
2022-08-07T00:42:01.923Z,2.13
2022-08-07T00:44:34.894Z,1.63
2022-08-07T00:47:15.791Z,1.80
2022-08-07T00:50:20.351Z,1.07
2022-08-07T00:52:53.043Z,4.53
2022-08-07T00:56:00.399Z,1.70
2022-08-07T00:58:19.092Z,1.83
2022-08-07T01:00:53.929Z,1.33
2022-08-07T01:03:57.313Z,2.57
2022-08-07T01:06:18.139Z,3.53
2022-08-07T01:08:55.738Z,2.30
2022-08-07T01:12:27.908Z,4.57
2022-08-07T01:14:28.890Z,1.30
2022-08-07T01:17:04.102Z,5.23
2022-08-07T01:19:39.916Z,2.97
2022-08-07T01:22:22.954Z,4.00
2022-08-07T01:25:05.119Z,3.03
2022-08-07T01:27:53.308Z,3.73
2022-08-07T01:30:27.384Z,6.17
2022-08-07T01:33:02.259Z,7.67
2022-08-07T01:35:52.876Z,5.17
2022-08-07T01:38:29.271Z,1.87
2022-08-07T01:41:06.973Z,7.33
2022-08-07T01:43:42.918Z,4.33
2022-08-07T01:46:14.936Z,3.60
2022-08-07T01:48:53.161Z,2.00
2022-08-07T01:52:02.766Z,4.83
2022-08-07T01:54:32.578Z,3.03
2022-08-07T01:57:24.128Z,1.53
2022-08-07T02:00:00.430Z,3.40
2022-08-07T02:03:18.856Z,2.93
2022-08-07T02:05:43.312Z,2.37
2022-08-07T02:08:30.866Z,3.30
2022-08-07T02:11:03.402Z,1.30
2022-08-07T02:13:56.729Z,4.77
2022-08-07T02:16:33.099Z,3.17
2022-08-07T02:20:07.548Z,2.70
2022-08-07T02:22:01.673Z,3.67
2022-08-07T02:24:34.664Z,3.03
2022-08-07T02:27:08.465Z,7.83
2022-08-07T02:29:48.592Z,3.67
2022-08-07T02:32:30.220Z,2.27
2022-08-07T02:35:02.244Z,2.37
2022-08-07T02:37:44.031Z,1.50
2022-08-07T02:40:30.769Z,2.07
2022-08-07T02:43:07.957Z,4.33
2022-08-07T02:45:58.311Z,2.47
2022-08-07T02:48:32.108Z,3.00
2022-08-07T02:51:14.274Z,3.50
2022-08-07T02:54:03.163Z,4.37
2022-08-07T02:56:35.849Z,5.07
2022-08-07T02:59:10.754Z,2.87
2022-08-07T03:01:47.331Z,3.03
2022-08-07T03:04:25.165Z,1.77
2022-08-07T03:06:58.345Z,3.83
2022-08-07T03:09:42.085Z,2.30
2022-08-07T03:12:21.942Z,6.10
2022-08-07T03:14:56.389Z,3.73
2022-08-07T03:17:28.785Z,2.17
2022-08-07T03:20:00.685Z,3.23
2022-08-07T03:22:33.346Z,5.03
2022-08-07T03:25:05.345Z,4.60
2022-08-07T03:27:59.745Z,2.80
2022-08-07T03:30:38.238Z,4.40
2022-08-07T03:33:10.142Z,3.17
2022-08-07T03:35:50.241Z,3.20
2022-08-07T03:38:29.733Z,1.90
2022-08-07T03:41:05.432Z,1.67
2022-08-07T03:43:44.073Z,3.23
2022-08-07T03:46:30.183Z,1.40
2022-08-07T03:49:03.498Z,2.63
2022-08-07T03:51:47.321Z,2.00
2022-08-07T03:54:36.168Z,6.43
2022-08-07T03:58:33.134Z,2.53
2022-08-07T04:00:13.081Z,2.73
2022-08-07T04:02:56.607Z,3.43
2022-08-07T04:05:40.783Z,3.40
2022-08-07T04:08:22.219Z,2.57
2022-08-07T04:12:21.141Z,5.17
2022-08-07T04:14:09.410Z,1.53
2022-08-07T04:16:43.095Z,2.50
2022-08-07T04:19:51.036Z,4.53
2022-08-07T04:25:40.955Z,3.93
2022-08-07T04:28:14.735Z,2.13
2022-08-07T04:30:57.210Z,5.67
2022-08-07T04:33:35.272Z,2.97
2022-08-07T04:36:11.009Z,5.27
2022-08-07T04:38:43.428Z,5.80
2022-08-07T04:41:19.044Z,8.33
2022-08-07T04:44:12.056Z,8.80
2022-08-07T04:47:08.588Z,4.20
2022-08-07T04:50:04.421Z,4.93
2022-08-07T04:52:53.702Z,8.97
2022-08-07T04:58:23.668Z,7.53
2022-08-07T04:59:09.154Z,8.47
2022-08-07T05:01:39.776Z,7.87
2022-08-07T05:04:36.236Z,4.03
2022-08-07T05:07:22.055Z,4.20
2022-08-07T05:10:07.878Z,8.50
2022-08-07T05:12:53.005Z,6.33
2022-08-07T05:15:32.435Z,6.33
2022-08-07T05:18:10.518Z,4.80
2022-08-07T05:20:48.039Z,7.22
2022-08-07T05:23:35.567Z,4.57
2022-08-07T05:26:18.701Z,4.37
2022-08-07T05:29:00.209Z,10.02
2022-08-07T05:31:40.934Z,5.10
2022-08-07T05:34:26.304Z,7.40
2022-08-07T05:36:59.562Z,8.30
2022-08-07T05:40:13.961Z,6.32
2022-08-07T05:42:34.474Z,6.47
2022-08-07T05:45:19.845Z,7.72
2022-08-07T05:48:02.625Z,10.80
2022-08-07T05:50:43.018Z,6.43
2022-08-07T05:54:13.381Z,7.90
2022-08-07T05:56:09.433Z,13.25
2022-08-07T05:58:52.344Z,4.43
2022-08-07T06:01:27.448Z,9.18
2022-08-07T06:04:09.331Z,8.90
2022-08-07T06:06:46.272Z,6.50
2022-08-07T06:09:20.425Z,9.00
2022-08-07T06:12:15.248Z,5.35
2022-08-07T06:14:49.448Z,5.35
2022-08-07T06:17:22.298Z,9.60
2022-08-07T06:20:04.099Z,6.13
2022-08-07T06:22:40.041Z,5.65
2022-08-07T06:25:34.888Z,5.00
2022-08-07T06:28:10.507Z,6.05
2022-08-07T06:30:53.108Z,7.53
2022-08-07T06:33:26.789Z,6.03
2022-08-07T06:36:11.902Z,9.00
2022-08-07T06:40:15.989Z,7.18
2022-08-07T06:42:06.454Z,9.75
2022-08-07T06:44:59.563Z,5.38
2022-08-07T06:47:47.825Z,6.75
2022-08-07T06:50:23.220Z,4.18
2022-08-07T06:52:56.542Z,4.47
2022-08-07T06:55:54.020Z,6.68
2022-08-07T06:58:24.659Z,7.13
2022-08-07T07:01:09.712Z,6.93
2022-08-07T07:03:49.278Z,7.32
2022-08-07T07:06:26.565Z,6.95
2022-08-07T07:09:17.916Z,9.38
2022-08-07T07:12:16.800Z,7.28
2022-08-07T07:14:55.252Z,4.53
2022-08-07T07:17:38.868Z,7.45
2022-08-07T07:20:13.519Z,6.13
2022-08-07T07:24:09.390Z,8.30
2022-08-07T07:26:32.957Z,5.28
2022-08-07T07:29:56.299Z,6.50
2022-08-07T07:31:55.421Z,5.95
2022-08-07T07:34:31.241Z,4.25
2022-08-07T07:37:05.544Z,6.10
2022-08-07T07:39:55.684Z,5.03
2022-08-07T07:42:32.978Z,5.25
2022-08-07T07:45:06.297Z,8.05
2022-08-07T07:47:51.899Z,5.85
2022-08-07T07:50:35.390Z,3.67
2022-08-07T07:53:20.347Z,2.53
2022-08-07T07:56:00.545Z,4.28
2022-08-07T07:58:40.298Z,2.83
2022-08-07T08:02:02.903Z,2.28
2022-08-07T08:04:09.965Z,2.03
2022-08-07T08:06:51.969Z,3.33
2022-08-07T08:09:29.296Z,3.30
2022-08-07T08:12:04.970Z,3.80
2022-08-07T08:14:37.156Z,5.45
2022-08-07T08:17:55.385Z,2.15
2022-08-07T08:20:18.198Z,2.40
2022-08-07T08:23:14.553Z,4.72
2022-08-07T08:26:07.225Z,3.47
2022-08-07T08:28:43.592Z,2.70
2022-08-07T08:31:22.771Z,5.90
2022-08-07T08:34:03.248Z,4.43
2022-08-07T08:36:35.051Z,2.05
2022-08-07T08:39:08.032Z,2.95
2022-08-07T08:42:01.296Z,5.57
2022-08-07T08:44:44.831Z,2.72
2022-08-07T08:47:25.063Z,2.08
2022-08-07T08:50:17.581Z,5.18
2022-08-07T08:53:29.736Z,2.75
2022-08-07T08:56:10.691Z,1.48
2022-08-07T08:59:16.457Z,5.15
2022-08-07T09:02:36.777Z,5.53
2022-08-07T09:05:46.865Z,2.20
2022-08-07T09:08:55.369Z,1.98
2022-08-07T09:11:53.174Z,2.50
2022-08-07T09:14:34.235Z,1.88
2022-08-07T09:17:33.983Z,4.38
2022-08-07T09:20:35.218Z,1.42
2022-08-07T09:24:54.099Z,3.95
2022-08-07T09:26:47.921Z,1.92
2022-08-07T09:30:03.873Z,2.03
2022-08-07T09:32:50.730Z,4.90
2022-08-07T09:36:05.338Z,6.65
2022-08-07T09:38:53.965Z,3.78
2022-08-07T09:42:03.095Z,1.88
2022-08-07T09:47:51.886Z,3.95
2022-08-07T09:48:12.201Z,2.83
2022-08-07T09:51:14.616Z,5.45
2022-08-07T09:54:02.545Z,3.72
2022-08-07T09:56:56.439Z,3.70
2022-08-07T10:00:00.579Z,3.08
2022-08-07T10:02:54.971Z,4.13
2022-08-07T10:05:59.985Z,3.33
2022-08-07T10:08:32.982Z,3.03
2022-08-07T10:12:01.070Z,2.47
2022-08-07T10:14:31.960Z,3.25
2022-08-07T10:17:33.779Z,2.95
2022-08-07T10:20:30.545Z,2.53
2022-08-07T10:24:06.304Z,3.72
2022-08-07T10:26:53.259Z,1.65
2022-08-07T10:29:45.557Z,4.22
2022-08-07T10:32:53.770Z,2.22
2022-08-07T10:35:53.430Z,4.18
2022-08-07T10:38:51.843Z,1.35
2022-08-07T10:41:52.167Z,2.97
2022-08-07T10:44:45.177Z,2.47
2022-08-07T10:47:51.498Z,2.28
2022-08-07T10:50:50.234Z,3.55
2022-08-07T10:53:43.920Z,3.33
2022-08-07T10:56:33.144Z,1.50
2022-08-07T10:59:21.477Z,1.92
2022-08-07T11:02:33.129Z,1.02
2022-08-07T11:05:17.867Z,1.92
2022-08-07T11:08:13.952Z,2.13
2022-08-07T11:10:57.835Z,1.15
2022-08-07T11:14:44.812Z,1.20
2022-08-07T11:16:52.758Z,1.45
2022-08-07T11:19:51.978Z,1.95
2022-08-07T11:22:43.945Z,2.20
2022-08-07T11:25:50.113Z,1.52
2022-08-07T11:29:01.669Z,1.50
2022-08-07T11:31:42.549Z,2.42
2022-08-07T11:34:31.286Z,1.50
2022-08-07T11:37:38.522Z,3.00
2022-08-07T11:40:37.192Z,1.45
2022-08-07T11:43:41.677Z,1.55
2022-08-07T11:46:28.517Z,1.30
2022-08-07T11:50:25.163Z,1.23
2022-08-07T11:52:50.043Z,1.95
2022-08-07T11:56:15.490Z,1.60
2022-08-07T11:59:22.244Z,2.10
2022-08-07T12:02:30.522Z,2.20
2022-08-07T12:05:28.723Z,1.35
2022-08-07T12:08:26.031Z,2.05
2022-08-07T12:11:21.156Z,2.95
2022-08-07T12:13:58.357Z,1.70
2022-08-07T12:16:33.016Z,1.60
2022-08-07T12:19:21.341Z,3.47
2022-08-07T12:22:56.056Z,1.67
2022-08-07T12:26:21.875Z,2.97
2022-08-07T12:29:03.826Z,2.40
2022-08-07T12:31:37.667Z,1.42
2022-08-07T12:34:29.986Z,5.18
2022-08-07T12:37:08.710Z,1.92
2022-08-07T12:39:51.314Z,2.90
2022-08-07T12:42:27.763Z,1.50
2022-08-07T12:45:09.293Z,3.00
2022-08-07T12:47:59.526Z,2.33
2022-08-07T12:50:49.123Z,4.25
2022-08-07T12:54:02.622Z,2.88
2022-08-07T12:56:39.604Z,1.58
2022-08-07T12:59:20.293Z,1.58
2022-08-07T13:02:44.017Z,3.10
2022-08-07T13:06:03.703Z,2.25
2022-08-07T13:08:56.039Z,1.33
2022-08-07T13:12:02.721Z,2.28
2022-08-07T13:14:58.889Z,1.67
2022-08-07T13:17:49.596Z,1.67
2022-08-07T13:20:46.413Z,2.03
2022-08-07T13:24:01.981Z,1.70
2022-08-07T13:27:08.455Z,2.50
2022-08-07T13:29:46.986Z,1.88
2022-08-07T13:32:32.245Z,2.40
2022-08-07T13:35:24.021Z,1.40
2022-08-07T13:38:31.303Z,3.25
2022-08-07T13:41:11.096Z,1.48
2022-08-07T13:43:43.648Z,2.05
2022-08-07T13:46:32.819Z,1.98
2022-08-07T13:49:08.915Z,1.58
2022-08-07T13:52:05.237Z,2.38
2022-08-07T13:54:49.610Z,1.45
2022-08-07T13:57:24.241Z,4.75
2022-08-07T13:59:57.662Z,2.33
2022-08-07T14:02:33.458Z,3.25
2022-08-07T14:05:13.295Z,3.47
2022-08-07T14:07:59.688Z,4.35
2022-08-07T14:10:41.815Z,3.20
2022-08-07T14:13:20.861Z,1.75
2022-08-07T14:16:06.493Z,2.47
2022-08-07T14:18:57.354Z,3.20
2022-08-07T14:22:03.461Z,2.83
2022-08-07T14:24:33.242Z,3.38
2022-08-07T14:28:11.224Z,2.70
2022-08-07T14:30:11.587Z,3.35
2022-08-07T14:32:46.519Z,4.57
2022-08-07T14:35:43.354Z,4.00
2022-08-07T14:38:31.031Z,3.45
2022-08-07T14:41:06.346Z,2.83
2022-08-07T14:43:57.320Z,3.65
2022-08-07T14:46:32.536Z,3.92
2022-08-07T14:49:17.241Z,3.95
2022-08-07T14:54:49.819Z,3.42
2022-08-07T14:57:58.003Z,3.63
2022-08-07T15:03:16.709Z,2.47
2022-08-07T15:05:54.932Z,5.20
2022-08-07T15:08:50.379Z,4.07
2022-08-07T15:11:53.683Z,5.15
2022-08-07T15:14:25.424Z,7.05
2022-08-07T15:17:12.582Z,6.28
2022-08-07T15:20:34.063Z,4.95
2022-08-07T15:22:53.692Z,4.18
2022-08-07T15:25:36.940Z,5.55
2022-08-07T15:28:36.192Z,4.85
2022-08-07T15:31:05.761Z,4.05
2022-08-07T15:37:04.145Z,5.22
2022-08-07T15:39:24.544Z,4.10
2022-08-07T15:42:44.051Z,3.25
2022-08-07T15:44:55.109Z,2.42
2022-08-07T15:48:00.832Z,2.40
2022-08-07T15:50:37.698Z,2.50
2022-08-07T15:53:51.996Z,2.42
2022-08-07T15:56:34.427Z,1.95
2022-08-07T15:59:16.640Z,2.78
2022-08-07T16:02:02.474Z,3.00
2022-08-07T16:04:35.086Z,3.20
2022-08-07T16:08:33.394Z,2.65
2022-08-07T16:10:15.027Z,2.83
2022-08-07T16:13:17.474Z,1.92
2022-08-07T16:16:42.861Z,1.90
2022-08-07T16:19:42.801Z,4.13
2022-08-07T16:22:33.874Z,2.65
2022-08-07T16:25:52.650Z,3.10
2022-08-07T16:30:07.389Z,2.47
2022-08-07T16:31:51.983Z,4.47
2022-08-07T16:34:33.214Z,2.90
2022-08-07T16:38:09.200Z,5.75
2022-08-07T16:40:37.462Z,4.07
2022-08-07T16:44:02.555Z,4.03
2022-08-07T16:47:27.333Z,3.58
2022-08-07T16:50:36.184Z,2.33
2022-08-07T16:54:01.508Z,3.60
2022-08-07T16:56:26.524Z,2.00
2022-08-07T16:59:22.859Z,2.42
2022-08-07T17:02:51.729Z,1.90
2022-08-07T17:06:19.247Z,2.53
2022-08-07T17:10:06.421Z,2.03
2022-08-07T17:12:36.624Z,3.40
2022-08-07T17:15:16.906Z,3.78
2022-08-07T17:17:48.410Z,2.45
2022-08-07T17:20:37.817Z,3.45
2022-08-07T17:23:19.306Z,3.08
2022-08-07T17:26:23.498Z,2.95
2022-08-07T17:30:13.165Z,4.30
2022-08-07T17:32:52.877Z,2.83
2022-08-07T17:35:54.910Z,2.00
2022-08-07T17:38:50.703Z,2.47
2022-08-07T17:42:01.495Z,3.50
2022-08-07T17:44:49.928Z,4.60
2022-08-07T17:47:46.400Z,2.63
2022-08-07T17:50:34.026Z,2.63
2022-08-07T17:53:55.647Z,3.30
2022-08-07T17:56:15.123Z,4.22
2022-08-07T17:59:01.645Z,3.33
2022-08-07T18:01:38.039Z,5.40
2022-08-07T18:04:34.565Z,2.63
2022-08-07T18:07:20.172Z,3.13
2022-08-07T18:10:06.092Z,3.38
2022-08-07T18:12:39.455Z,2.60
2022-08-07T18:15:32.745Z,3.63
2022-08-07T18:18:47.500Z,4.95
2022-08-07T18:21:42.212Z,2.58
2022-08-07T18:24:33.275Z,2.95
2022-08-07T18:27:25.230Z,3.25
2022-08-07T18:30:31.581Z,2.30
2022-08-07T18:33:15.426Z,3.83
2022-08-07T18:36:05.849Z,2.95
2022-08-07T18:40:05.514Z,4.05
2022-08-07T18:42:23.016Z,2.30
2022-08-07T18:45:44.873Z,5.72
2022-08-07T18:48:10.596Z,5.78
2022-08-07T18:52:38.746Z,2.45
2022-08-07T18:54:56.684Z,6.55
2022-08-07T18:57:58.638Z,5.78
2022-08-07T19:00:53.776Z,3.65
2022-08-07T19:03:49.181Z,5.95
2022-08-07T19:06:33.854Z,5.78
2022-08-07T19:09:55.306Z,2.88
2022-08-07T19:12:18.866Z,3.10
2022-08-07T19:16:03.157Z,3.97
2022-08-07T19:18:36.374Z,3.53
2022-08-07T19:21:44.018Z,2.60
2022-08-07T19:24:37.078Z,5.82
2022-08-07T19:30:55.402Z,3.58
2022-08-07T19:31:04.680Z,3.55
2022-08-07T19:33:13.160Z,2.90
2022-08-07T19:35:54.620Z,5.75
2022-08-07T19:38:27.913Z,4.10
2022-08-07T19:41:00.749Z,3.67
2022-08-07T19:43:43.670Z,6.30
2022-08-07T19:46:29.028Z,4.03
2022-08-07T19:49:17.220Z,4.78
2022-08-07T19:52:00.607Z,4.47
2022-08-07T19:54:45.087Z,3.20
2022-08-07T19:58:04.780Z,3.88
2022-08-07T20:00:29.011Z,4.63
2022-08-07T20:03:03.781Z,4.55
2022-08-07T20:05:59.716Z,4.45
2022-08-07T20:08:34.135Z,3.85
2022-08-07T20:11:12.043Z,5.68
2022-08-07T20:13:50.492Z,5.28
2022-08-07T20:16:34.923Z,7.38
2022-08-07T20:19:10.441Z,4.00
2022-08-07T20:21:47.700Z,3.90
2022-08-07T20:24:28.749Z,4.38
2022-08-07T20:27:03.153Z,4.35
2022-08-07T20:29:49.402Z,6.40
2022-08-07T20:32:39.727Z,6.55
2022-08-07T20:35:23.289Z,4.60
2022-08-07T20:38:00.893Z,5.00
2022-08-07T20:40:41.194Z,5.35
2022-08-07T20:43:19.214Z,3.92
2022-08-07T20:46:27.495Z,6.95
2022-08-07T20:48:58.134Z,5.75
2022-08-07T20:51:40.610Z,7.18
2022-08-07T20:54:29.319Z,5.23
2022-08-07T20:57:04.743Z,4.30
2022-08-07T21:00:06.669Z,5.93
2022-08-07T21:02:54.422Z,4.45
2022-08-07T21:05:51.381Z,6.95
2022-08-07T21:08:37.679Z,5.27
2022-08-07T21:11:14.342Z,5.07
2022-08-07T21:14:29.422Z,6.43
2022-08-07T21:18:02.032Z,7.33
2022-08-07T21:20:01.033Z,5.63
2022-08-07T21:22:44.769Z,5.00
2022-08-07T21:25:44.484Z,4.50
2022-08-07T21:29:18.649Z,4.70
2022-08-07T21:32:47.534Z,9.87
2022-08-07T21:34:59.870Z,4.63
2022-08-07T21:37:58.465Z,4.18
2022-08-07T21:40:38.362Z,5.90
2022-08-07T21:43:16.590Z,6.57
2022-08-07T21:46:32.955Z,4.57
2022-08-07T21:49:25.546Z,5.50
2022-08-07T21:52:11.909Z,8.37
2022-08-07T21:54:58.953Z,5.73
2022-08-07T21:57:52.637Z,5.97
2022-08-07T22:00:25.445Z,5.87
2022-08-07T22:03:05.865Z,6.80
2022-08-07T22:06:06.416Z,7.17
2022-08-07T22:08:41.509Z,5.20
2022-08-07T22:11:17.832Z,6.60
2022-08-07T22:13:55.071Z,6.57
2022-08-07T22:16:42.655Z,7.10
2022-08-07T22:19:57.401Z,6.63
2022-08-07T22:22:39.904Z,8.53
2022-08-07T22:25:36.562Z,6.13
2022-08-07T22:28:31.073Z,5.97
2022-08-07T22:31:59.440Z,8.83
2022-08-07T22:34:54.296Z,8.03
2022-08-07T22:38:04.460Z,6.87
2022-08-07T22:41:16.465Z,6.77
2022-08-07T22:43:56.465Z,8.03
2022-08-07T22:47:02.212Z,13.47
2022-08-07T22:49:42.825Z,7.00
2022-08-07T22:52:45.890Z,6.63
2022-08-07T22:55:29.975Z,7.07
2022-08-07T22:58:17.773Z,6.27
2022-08-07T23:01:25.217Z,6.13
2022-08-07T23:04:29.960Z,6.77
2022-08-07T23:07:41.790Z,7.27
2022-08-07T23:10:42.095Z,7.03
2022-08-07T23:13:49.205Z,7.70
2022-08-07T23:16:54.788Z,6.70
2022-08-07T23:20:52.482Z,7.03
2022-08-07T23:24:06.357Z,8.97
2022-08-07T23:26:25.140Z,9.23
2022-08-07T23:29:42.580Z,8.33
2022-08-07T23:34:23.539Z,8.20
2022-08-07T23:35:27.189Z,7.97
2022-08-07T23:38:19.465Z,10.13
2022-08-07T23:41:17.116Z,7.33
2022-08-07T23:43:55.234Z,8.73
2022-08-07T23:46:55.243Z,9.37
2022-08-07T23:49:42.144Z,8.70
2022-08-07T23:53:06.800Z,7.93
2022-08-07T23:55:53.477Z,9.27
2022-08-07T23:58:54.600Z,8.40
